Reeders, Pennsylvania
Current Conditions -  °F | °C
As of 7:53 AM on Sunday 23 Nov 2014 (Local Time) from KMPO Reporting Station
Overcast Overcast  
Wind Chill: 36°   Ceiling: 7000
Heat Index: 41°   Visibility: 10mi
Dew Point: 19°   Wind: 8mph
Humidity: 41%   Direction: 270°W
Pressure: 30.14"   Gusts: NA
Location:  41.02°N, 75.34°W
Report Text: KMPO 231253Z AUTO 27007KT 10SM OVC070 05/M07 A3014 RMK AO2 SLP220 T00501072
Loading
Personal Weather Stations






























Interactive Weather Map New forecast layout! Learn more

10-Day Weather Forecast

Advertisements
Track Severe Weather on mobile